createdAt,value
2022-08-09T00:02:32.618Z,15.40
2022-08-09T00:05:03.519Z,15.30
2022-08-09T00:07:47.391Z,15.30
2022-08-09T00:10:18.247Z,15.20
2022-08-09T00:12:52.815Z,15.20
2022-08-09T00:15:26.644Z,15.20
2022-08-09T00:18:12.013Z,15.20
2022-08-09T00:20:41.445Z,15.20
2022-08-09T00:23:56.554Z,15.10
2022-08-09T00:26:05.060Z,15.10
2022-08-09T00:28:34.497Z,15.00
2022-08-09T00:31:50.506Z,15.00
2022-08-09T00:33:52.044Z,15.00
2022-08-09T00:36:19.917Z,15.00
2022-08-09T00:38:50.721Z,14.90
2022-08-09T00:44:11.607Z,14.90
2022-08-09T00:44:24.942Z,14.90
2022-08-09T00:47:05.027Z,14.90
2022-08-09T00:49:36.505Z,14.90
2022-08-09T00:52:06.032Z,14.90
2022-08-09T00:54:43.179Z,14.80
2022-08-09T00:57:12.033Z,14.80
2022-08-09T00:59:46.238Z,14.80
2022-08-09T01:02:24.473Z,14.80
2022-08-09T01:05:03.605Z,14.80
2022-08-09T01:08:00.899Z,14.80
2022-08-09T01:11:04.590Z,14.80
2022-08-09T01:13:59.375Z,14.70
2022-08-09T01:16:33.026Z,14.70
2022-08-09T01:19:05.170Z,14.70
2022-08-09T01:21:51.303Z,14.60
2022-08-09T01:24:37.666Z,14.60
2022-08-09T01:27:18.540Z,14.60
2022-08-09T01:29:55.884Z,14.50
2022-08-09T01:32:31.031Z,14.50
2022-08-09T01:35:28.182Z,14.50
2022-08-09T01:38:10.051Z,14.50
2022-08-09T01:40:52.460Z,14.50
2022-08-09T01:43:21.054Z,14.40
2022-08-09T01:45:53.664Z,14.40
2022-08-09T01:48:31.353Z,14.40
2022-08-09T01:50:59.887Z,14.40
2022-08-09T01:53:29.009Z,14.40
2022-08-09T01:55:57.423Z,14.40
2022-08-09T01:58:27.301Z,14.30
2022-08-09T02:00:57.930Z,14.30
2022-08-09T02:03:29.197Z,14.30
2022-08-09T02:06:04.038Z,14.30
2022-08-09T02:08:57.254Z,14.30
2022-08-09T02:11:42.943Z,14.20
2022-08-09T02:14:14.955Z,14.20
2022-08-09T02:17:09.008Z,14.20
2022-08-09T02:19:43.213Z,14.20
2022-08-09T02:22:46.438Z,14.10
2022-08-09T02:25:20.506Z,14.10
2022-08-09T02:28:00.575Z,14.10
2022-08-09T02:30:39.257Z,14.00
2022-08-09T02:33:14.398Z,14.00
2022-08-09T02:36:02.099Z,14.00
2022-08-09T02:38:41.351Z,13.90
2022-08-09T02:41:19.635Z,13.90
2022-08-09T02:43:54.745Z,13.90
2022-08-09T02:46:27.387Z,13.90
2022-08-09T02:48:57.170Z,13.90
2022-08-09T02:51:26.683Z,13.80
2022-08-09T02:54:00.564Z,13.80
2022-08-09T02:56:30.387Z,13.80
2022-08-09T02:58:59.809Z,13.80
2022-08-09T03:01:29.284Z,13.80
2022-08-09T03:04:19.477Z,13.70
2022-08-09T03:06:48.900Z,13.70
2022-08-09T03:09:17.403Z,13.60
2022-08-09T03:12:09.916Z,13.60
2022-08-09T03:14:32.838Z,13.60
2022-08-09T03:17:01.472Z,13.60
2022-08-09T03:19:58.593Z,13.60
2022-08-09T03:22:25.738Z,13.60
2022-08-09T03:25:05.808Z,13.60
2022-08-09T03:27:50.702Z,13.50
2022-08-09T03:30:29.877Z,13.50
2022-08-09T03:33:16.951Z,13.50
2022-08-09T03:36:12.370Z,13.50
2022-08-09T03:38:35.761Z,13.50
2022-08-09T03:41:04.361Z,13.50
2022-08-09T03:43:32.139Z,13.60
2022-08-09T03:46:05.448Z,13.50
2022-08-09T03:48:52.847Z,13.60
2022-08-09T03:51:56.332Z,13.60
2022-08-09T03:54:14.706Z,13.60
2022-08-09T03:56:42.335Z,13.60
2022-08-09T03:59:17.199Z,13.60
2022-08-09T04:01:50.566Z,13.60
2022-08-09T04:04:18.897Z,13.60
2022-08-09T04:06:49.083Z,13.60
2022-08-09T04:09:48.331Z,13.60
2022-08-09T04:12:12.056Z,13.60
2022-08-09T04:15:02.536Z,13.70
2022-08-09T04:17:42.451Z,13.70
2022-08-09T04:20:12.253Z,13.70
2022-08-09T04:22:41.156Z,13.80
2022-08-09T04:25:12.244Z,13.80
2022-08-09T04:27:48.804Z,13.80
2022-08-09T04:30:20.923Z,13.80
2022-08-09T04:32:51.111Z,13.80
2022-08-09T04:35:18.637Z,13.90
2022-08-09T04:37:49.691Z,14.00
2022-08-09T04:40:19.082Z,14.00
2022-08-09T04:42:48.348Z,14.20
2022-08-09T04:45:20.426Z,14.30
2022-08-09T04:48:00.914Z,14.40
2022-08-09T04:50:31.885Z,14.50
2022-08-09T04:53:01.934Z,14.60
2022-08-09T04:55:35.405Z,14.70
2022-08-09T04:58:11.251Z,14.90
2022-08-09T05:00:40.784Z,15.00
2022-08-09T05:03:40.169Z,15.10
2022-08-09T05:06:04.533Z,15.10
2022-08-09T05:08:34.991Z,15.30
2022-08-09T05:11:02.988Z,15.30
2022-08-09T05:13:33.147Z,15.40
2022-08-09T05:16:01.283Z,15.50
2022-08-09T05:18:38.987Z,15.50
2022-08-09T05:21:23.136Z,15.60
2022-08-09T05:24:00.423Z,15.70
2022-08-09T05:26:35.950Z,15.70
2022-08-09T05:29:17.597Z,15.70
2022-08-09T05:31:56.241Z,15.80
2022-08-09T05:34:31.301Z,15.90
2022-08-09T05:37:06.582Z,15.90
2022-08-09T05:39:42.763Z,16.10
2022-08-09T05:42:17.227Z,16.10
2022-08-09T05:44:51.298Z,16.20
2022-08-09T05:47:23.303Z,16.30
2022-08-09T05:50:30.447Z,16.40
2022-08-09T05:52:40.077Z,16.50
2022-08-09T05:55:10.930Z,16.60
2022-08-09T05:57:51.022Z,16.60
2022-08-09T06:00:25.725Z,16.70
2022-08-09T06:02:54.538Z,16.80
2022-08-09T06:05:50.041Z,16.90
2022-08-09T06:08:11.651Z,17.00
2022-08-09T06:10:38.971Z,17.10
2022-08-09T06:13:12.261Z,17.20
2022-08-09T06:15:46.790Z,17.30
2022-08-09T06:18:15.711Z,17.50
2022-08-09T06:20:43.136Z,17.50
2022-08-09T06:23:21.141Z,17.70
2022-08-09T06:25:49.588Z,17.80
2022-08-09T06:28:22.232Z,17.90
2022-08-09T06:30:54.329Z,18.10
2022-08-09T06:33:41.162Z,18.20
2022-08-09T06:36:09.473Z,18.30
2022-08-09T06:38:47.172Z,18.40
2022-08-09T06:41:19.173Z,18.50
2022-08-09T06:43:48.056Z,18.60
2022-08-09T06:46:40.285Z,18.70
2022-08-09T06:49:02.873Z,18.80
2022-08-09T06:51:30.309Z,18.90
2022-08-09T06:54:00.933Z,19.10
2022-08-09T06:56:31.066Z,19.20
2022-08-09T07:00:50.386Z,19.30
2022-08-09T07:01:54.726Z,19.40
2022-08-09T07:04:30.689Z,19.50
2022-08-09T07:07:00.067Z,19.70
2022-08-09T07:09:56.502Z,19.70
2022-08-09T07:12:17.957Z,19.80
2022-08-09T07:14:51.395Z,19.90
2022-08-09T07:17:21.932Z,20.00
2022-08-09T07:19:50.866Z,20.10
2022-08-09T07:22:34.759Z,20.20
2022-08-09T07:25:05.174Z,20.30
2022-08-09T07:27:34.219Z,20.40
2022-08-09T07:30:09.804Z,20.40
2022-08-09T07:32:36.899Z,20.40
2022-08-09T07:35:11.346Z,20.60
2022-08-09T07:37:45.421Z,20.60
2022-08-09T07:40:18.649Z,20.70
2022-08-09T07:42:54.514Z,20.70
2022-08-09T07:45:39.489Z,20.70
2022-08-09T07:48:22.412Z,20.80
2022-08-09T07:51:09.040Z,20.90
2022-08-09T07:54:05.816Z,21.10
2022-08-09T07:56:33.813Z,21.20
2022-08-09T07:59:01.523Z,21.30
2022-08-09T08:01:32.993Z,21.40
2022-08-09T08:04:02.535Z,21.50
2022-08-09T08:06:31.611Z,21.60
2022-08-09T08:09:03.891Z,21.70
2022-08-09T08:12:10.047Z,21.80
2022-08-09T08:14:18.641Z,21.80
2022-08-09T08:17:01.024Z,21.90
2022-08-09T08:19:35.298Z,22.00
2022-08-09T08:22:03.370Z,22.00
2022-08-09T08:24:35.131Z,22.00
2022-08-09T08:27:07.068Z,22.10
2022-08-09T08:29:48.614Z,22.30
2022-08-09T08:32:24.294Z,22.40
2022-08-09T08:34:58.749Z,22.30
2022-08-09T08:37:41.955Z,22.40
2022-08-09T08:40:14.297Z,22.50
2022-08-09T08:42:47.373Z,22.60
2022-08-09T08:45:16.611Z,22.60
2022-08-09T08:47:46.047Z,22.70
2022-08-09T08:50:18.333Z,22.80
2022-08-09T08:52:59.705Z,22.90
2022-08-09T08:55:28.054Z,23.00
2022-08-09T08:57:57.082Z,23.00
2022-08-09T09:00:27.878Z,23.10
2022-08-09T09:03:08.379Z,23.20
2022-08-09T09:06:01.173Z,23.40
2022-08-09T09:08:40.222Z,23.60
2022-08-09T09:11:09.154Z,23.60
2022-08-09T09:13:56.671Z,23.70
2022-08-09T09:16:34.197Z,23.90
2022-08-09T09:19:37.389Z,24.10
2022-08-09T09:22:13.902Z,24.10
2022-08-09T09:26:00.465Z,24.30
2022-08-09T09:28:04.077Z,24.40
2022-08-09T09:30:41.208Z,24.70
2022-08-09T09:33:14.379Z,25.00
2022-08-09T09:36:02.549Z,25.20
2022-08-09T09:38:50.774Z,25.20
2022-08-09T09:41:23.450Z,25.20
2022-08-09T09:44:10.975Z,25.30
2022-08-09T09:46:42.281Z,25.40
2022-08-09T09:49:11.732Z,25.20
2022-08-09T09:51:41.000Z,25.30
2022-08-09T09:54:20.482Z,25.50
2022-08-09T09:58:00.639Z,25.30
2022-08-09T09:59:36.601Z,25.10
2022-08-09T10:02:03.957Z,25.10
2022-08-09T10:04:31.433Z,25.20
2022-08-09T10:06:58.939Z,25.30
2022-08-09T10:09:54.872Z,25.10
2022-08-09T10:12:32.547Z,24.80
2022-08-09T10:15:25.331Z,24.50
2022-08-09T10:18:11.787Z,24.40
2022-08-09T10:20:44.812Z,24.20
2022-08-09T10:23:24.773Z,24.10
2022-08-09T10:26:06.218Z,24.30
2022-08-09T10:28:36.042Z,24.50
2022-08-09T10:34:10.208Z,24.70
2022-08-09T10:36:38.851Z,24.60
2022-08-09T10:39:16.141Z,24.60
2022-08-09T10:41:47.617Z,24.60
2022-08-09T10:44:23.082Z,24.90
2022-08-09T10:47:01.360Z,25.10
2022-08-09T10:49:50.424Z,25.30
2022-08-09T10:52:43.873Z,25.30
2022-08-09T10:55:26.667Z,25.50
2022-08-09T10:58:00.242Z,25.70
2022-08-09T11:01:11.428Z,25.70
2022-08-09T11:03:51.548Z,25.70
2022-08-09T11:06:22.946Z,25.50
2022-08-09T11:08:53.508Z,25.10
2022-08-09T11:11:22.079Z,25.10
2022-08-09T11:14:28.164Z,25.10
2022-08-09T11:16:57.103Z,25.20
2022-08-09T11:20:10.670Z,25.20
2022-08-09T11:22:55.606Z,25.30
2022-08-09T11:25:36.357Z,25.70
2022-08-09T11:28:54.428Z,26.00
2022-08-09T11:31:52.745Z,26.50
2022-08-09T11:34:44.524Z,26.70
2022-08-09T11:37:40.714Z,26.90
2022-08-09T11:40:10.903Z,26.90
2022-08-09T11:42:45.852Z,26.70
2022-08-09T11:45:43.200Z,26.70
2022-08-09T11:48:26.120Z,26.70
2022-08-09T11:52:54.108Z,26.50
2022-08-09T11:53:59.333Z,26.40
2022-08-09T11:56:42.832Z,26.50
2022-08-09T11:59:30.292Z,26.70
2022-08-09T12:02:17.615Z,26.70
2022-08-09T12:04:50.709Z,26.80
2022-08-09T12:07:41.459Z,27.00
2022-08-09T12:10:14.329Z,26.90
2022-08-09T12:13:03.784Z,26.80
2022-08-09T12:15:49.583Z,26.80
2022-08-09T12:18:30.098Z,26.90
2022-08-09T12:21:00.562Z,27.00
2022-08-09T12:23:56.553Z,27.10
2022-08-09T12:26:25.790Z,27.20
2022-08-09T12:28:59.089Z,27.30
2022-08-09T12:31:59.406Z,27.20
2022-08-09T12:34:34.260Z,27.10
2022-08-09T12:37:22.002Z,27.00
2022-08-09T12:40:20.528Z,27.10
2022-08-09T12:42:50.180Z,27.10
2022-08-09T12:45:34.842Z,27.00
2022-08-09T12:48:27.826Z,26.90
2022-08-09T12:50:59.560Z,26.80
2022-08-09T12:53:40.715Z,26.90
2022-08-09T12:56:40.090Z,26.90
2022-08-09T12:59:17.104Z,26.70
2022-08-09T13:02:07.106Z,26.50
2022-08-09T13:04:38.586Z,26.50
2022-08-09T13:07:19.595Z,26.40
2022-08-09T13:10:05.322Z,26.40
2022-08-09T13:12:33.300Z,26.40
2022-08-09T13:15:09.771Z,26.40
2022-08-09T13:18:02.530Z,26.50
2022-08-09T13:20:37.146Z,26.60
2022-08-09T13:24:11.834Z,26.80
2022-08-09T13:25:52.949Z,27.00
2022-08-09T13:28:34.705Z,27.10
2022-08-09T13:32:13.827Z,27.10
2022-08-09T13:33:57.629Z,27.10
2022-08-09T13:36:41.342Z,27.20
2022-08-09T13:41:19.071Z,27.10
2022-08-09T13:42:11.883Z,27.10
2022-08-09T13:44:42.590Z,26.90
2022-08-09T13:47:27.569Z,26.80
2022-08-09T13:50:12.417Z,26.80
2022-08-09T13:52:46.077Z,26.80
2022-08-09T13:55:17.594Z,26.80
2022-08-09T13:57:56.338Z,26.70
2022-08-09T14:00:28.369Z,26.60
2022-08-09T14:03:03.124Z,26.70
2022-08-09T14:06:01.459Z,26.70
2022-08-09T14:08:31.581Z,26.70
2022-08-09T14:10:59.540Z,26.70
2022-08-09T14:14:22.764Z,26.70
2022-08-09T14:16:17.994Z,26.60
2022-08-09T14:18:49.691Z,26.50
2022-08-09T14:21:24.355Z,26.50
2022-08-09T14:23:56.574Z,26.60
2022-08-09T14:26:30.138Z,26.70
2022-08-09T14:29:02.983Z,26.70
2022-08-09T14:31:49.602Z,26.70
2022-08-09T14:34:30.872Z,26.70
2022-08-09T14:37:08.738Z,26.70
2022-08-09T14:39:40.044Z,26.70
2022-08-09T14:42:13.593Z,26.70
2022-08-09T14:44:59.279Z,26.70
2022-08-09T14:47:44.755Z,26.80
2022-08-09T14:50:16.144Z,26.90
2022-08-09T14:52:43.370Z,26.90
2022-08-09T14:55:14.815Z,27.10
2022-08-09T14:57:47.470Z,27.10
2022-08-09T15:00:16.475Z,27.40
2022-08-09T15:02:47.496Z,27.50
2022-08-09T15:05:18.526Z,27.70
2022-08-09T15:07:54.768Z,27.80
2022-08-09T15:10:25.337Z,28.10
2022-08-09T15:12:56.641Z,28.40
2022-08-09T15:15:24.695Z,28.70
2022-08-09T15:17:55.828Z,28.80
2022-08-09T15:21:57.689Z,28.90
2022-08-09T15:24:03.297Z,28.80
2022-08-09T15:25:58.453Z,28.90
2022-08-09T15:28:27.991Z,29.10
2022-08-09T15:31:09.855Z,29.30
2022-08-09T15:34:33.407Z,29.60
2022-08-09T15:36:29.193Z,29.50
2022-08-09T15:39:00.551Z,29.80
2022-08-09T15:41:31.908Z,30.10
2022-08-09T15:44:02.605Z,30.30
2022-08-09T15:46:33.474Z,30.40
2022-08-09T15:49:21.185Z,30.70
2022-08-09T15:52:02.964Z,30.90
2022-08-09T15:54:49.170Z,30.90
2022-08-09T15:57:19.161Z,30.70
2022-08-09T16:00:29.388Z,30.50
2022-08-09T16:02:57.769Z,30.50
2022-08-09T16:05:36.356Z,30.60
2022-08-09T16:08:29.969Z,30.90
2022-08-09T16:11:02.258Z,30.90
2022-08-09T16:14:03.302Z,30.90
2022-08-09T16:16:18.801Z,30.90
2022-08-09T16:18:46.945Z,30.90
2022-08-09T16:21:17.748Z,30.90
2022-08-09T16:23:55.688Z,30.50
2022-08-09T16:26:35.646Z,30.00
2022-08-09T16:29:14.545Z,29.80
2022-08-09T16:32:18.468Z,29.50
2022-08-09T16:34:53.518Z,29.30
2022-08-09T16:37:18.568Z,29.30
2022-08-09T16:39:54.453Z,29.30
2022-08-09T16:42:32.385Z,29.30
2022-08-09T16:44:59.219Z,29.60
2022-08-09T16:48:43.172Z,29.80
2022-08-09T16:50:29.463Z,29.90
2022-08-09T16:53:00.197Z,29.80
2022-08-09T16:55:31.377Z,29.60
2022-08-09T16:58:16.601Z,29.30
2022-08-09T17:00:43.824Z,28.70
2022-08-09T17:03:21.049Z,28.50
2022-08-09T17:06:06.952Z,28.30
2022-08-09T17:08:43.077Z,28.00
2022-08-09T17:11:24.348Z,27.60
2022-08-09T17:14:01.649Z,27.30
2022-08-09T17:16:29.113Z,27.10
2022-08-09T17:18:56.618Z,27.00
2022-08-09T17:21:29.022Z,26.90
2022-08-09T17:24:28.113Z,26.80
2022-08-09T17:26:42.897Z,26.70
2022-08-09T17:29:20.276Z,26.70
2022-08-09T17:31:49.137Z,26.50
2022-08-09T17:35:00.508Z,26.40
2022-08-09T17:37:03.833Z,26.30
2022-08-09T17:39:48.643Z,26.10
2022-08-09T17:42:41.767Z,26.00
2022-08-09T17:45:06.557Z,25.80
2022-08-09T17:47:49.050Z,25.50
2022-08-09T17:50:35.873Z,25.40
2022-08-09T17:53:04.555Z,25.30
2022-08-09T17:55:48.583Z,25.10
2022-08-09T17:58:18.851Z,25.00
2022-08-09T18:00:48.015Z,24.90
2022-08-09T18:03:17.821Z,24.80
2022-08-09T18:05:45.394Z,24.70
2022-08-09T18:08:21.819Z,24.60
2022-08-09T18:11:01.046Z,24.50
2022-08-09T18:13:43.614Z,24.40
2022-08-09T18:16:17.256Z,24.30
2022-08-09T18:18:56.888Z,24.20
2022-08-09T18:21:24.514Z,24.00
2022-08-09T18:24:10.270Z,23.90
2022-08-09T18:26:46.941Z,23.80
2022-08-09T18:30:40.807Z,23.80
2022-08-09T18:32:05.497Z,23.60
2022-08-09T18:34:35.207Z,23.50
2022-08-09T18:37:10.328Z,23.40
2022-08-09T18:39:53.432Z,23.30
2022-08-09T18:42:21.129Z,23.20
2022-08-09T18:44:55.227Z,23.10
2022-08-09T18:47:24.112Z,23.00
2022-08-09T18:49:54.768Z,22.90
2022-08-09T18:52:34.876Z,22.70
2022-08-09T18:55:03.659Z,22.60
2022-08-09T18:57:38.544Z,22.40
2022-08-09T19:00:16.324Z,22.40
2022-08-09T19:02:47.180Z,22.20
2022-08-09T19:05:28.960Z,22.10
2022-08-09T19:08:10.064Z,22.00
2022-08-09T19:10:39.454Z,21.80
2022-08-09T19:13:19.290Z,21.70
2022-08-09T19:15:50.125Z,21.60
2022-08-09T19:18:34.188Z,21.40
2022-08-09T19:21:05.241Z,21.30
2022-08-09T19:24:37.175Z,21.20
2022-08-09T19:26:29.046Z,21.10
2022-08-09T19:29:01.730Z,21.00
2022-08-09T19:31:30.499Z,20.90
2022-08-09T19:34:21.165Z,20.80
2022-08-09T19:36:50.357Z,20.70
2022-08-09T19:39:17.335Z,20.60
2022-08-09T19:41:48.786Z,20.60
2022-08-09T19:44:28.409Z,20.50
2022-08-09T19:46:57.094Z,20.40
2022-08-09T19:50:10.247Z,20.40
2022-08-09T19:52:12.295Z,20.30
2022-08-09T19:54:39.872Z,20.30
2022-08-09T19:57:08.525Z,20.20
2022-08-09T19:59:57.923Z,20.20
2022-08-09T20:04:08.276Z,20.10
2022-08-09T20:05:15.216Z,20.10
2022-08-09T20:07:59.205Z,20.10
2022-08-09T20:10:34.959Z,20.00
2022-08-09T20:13:06.052Z,20.00
2022-08-09T20:16:36.351Z,19.90
2022-08-09T20:18:22.426Z,19.80
2022-08-09T20:20:51.351Z,19.80
2022-08-09T20:23:23.619Z,19.70
2022-08-09T20:25:53.569Z,19.70
2022-08-09T20:28:34.482Z,19.60
2022-08-09T20:31:13.862Z,19.60
2022-08-09T20:33:44.598Z,19.60
2022-08-09T20:36:12.890Z,19.60
2022-08-09T20:41:34.869Z,19.70
2022-08-09T20:44:10.576Z,19.60
2022-08-09T20:46:42.815Z,19.60
2022-08-09T20:49:12.720Z,19.60
2022-08-09T20:51:41.573Z,19.50
2022-08-09T20:54:10.539Z,19.50
2022-08-09T20:56:41.054Z,19.50
2022-08-09T20:59:08.258Z,19.50
2022-08-09T21:01:49.872Z,19.50
2022-08-09T21:05:53.880Z,19.60
2022-08-09T21:07:11.534Z,19.60
2022-08-09T21:09:45.278Z,19.50
2022-08-09T21:14:42.008Z,19.40
2022-08-09T21:18:11.874Z,19.40
2022-08-09T21:20:18.926Z,19.40
2022-08-09T21:22:46.893Z,19.30
2022-08-09T21:25:38.501Z,19.20
2022-08-09T21:28:07.581Z,19.20
2022-08-09T21:30:40.757Z,19.20
2022-08-09T21:33:08.550Z,19.10
2022-08-09T21:35:39.467Z,19.10
2022-08-09T21:38:18.981Z,19.00
2022-08-09T21:40:58.232Z,19.00
2022-08-09T21:43:56.245Z,19.00
2022-08-09T21:46:13.652Z,19.00
2022-08-09T21:48:42.443Z,19.00
2022-08-09T21:51:14.069Z,19.00
2022-08-09T21:53:55.400Z,19.00
2022-08-09T21:56:33.876Z,18.90
2022-08-09T21:59:10.199Z,18.90
2022-08-09T22:01:59.182Z,18.80
2022-08-09T22:04:55.063Z,18.70
2022-08-09T22:07:12.247Z,18.70
2022-08-09T22:09:43.478Z,18.60
2022-08-09T22:12:18.446Z,18.60
2022-08-09T22:14:58.078Z,18.60
2022-08-09T22:17:24.905Z,18.60
2022-08-09T22:19:59.882Z,18.50
2022-08-09T22:22:29.194Z,18.50
2022-08-09T22:26:08.561Z,18.40
2022-08-09T22:27:42.840Z,18.40
2022-08-09T22:30:10.801Z,18.40
2022-08-09T22:32:37.854Z,18.30
2022-08-09T22:36:02.676Z,18.30
2022-08-09T22:38:07.244Z,18.30
2022-08-09T22:40:35.510Z,18.30
2022-08-09T22:43:16.125Z,18.20
2022-08-09T22:48:16.185Z,18.20
2022-08-09T22:48:36.944Z,18.10
2022-08-09T22:51:10.882Z,18.10
2022-08-09T22:54:02.607Z,18.10
2022-08-09T22:56:34.032Z,18.10
2022-08-09T22:59:55.954Z,18.10
2022-08-09T23:01:52.713Z,18.10
2022-08-09T23:04:19.837Z,18.00
2022-08-09T23:07:11.095Z,18.00
2022-08-09T23:09:38.922Z,18.00
2022-08-09T23:12:06.376Z,17.90
2022-08-09T23:14:37.647Z,17.90
2022-08-09T23:17:08.991Z,17.90
2022-08-09T23:20:02.488Z,17.80
2022-08-09T23:22:22.605Z,17.80
2022-08-09T23:24:49.537Z,17.70
2022-08-09T23:27:16.370Z,17.70
2022-08-09T23:29:43.602Z,17.70
2022-08-09T23:32:10.583Z,17.70
2022-08-09T23:34:37.652Z,17.60
2022-08-09T23:37:04.678Z,17.60
2022-08-09T23:39:34.450Z,17.50
2022-08-09T23:42:01.319Z,17.50
2022-08-09T23:44:28.212Z,17.40
2022-08-09T23:46:57.209Z,17.40
2022-08-09T23:49:25.887Z,17.30
2022-08-09T23:51:54.033Z,17.30
2022-08-09T23:54:25.195Z,17.30
2022-08-09T23:56:56.132Z,17.20
2022-08-09T23:59:25.872Z,17.20
